Time;durP1;ratioP1;P1;durP2;ratioP2;P2;SDS_P1;SDS_P2;PMS_P1;PMS_P2;Temp;Humidity;BMP_temperature;BMP_pressure;BME280_temperature;BME280_humidity;BME280_pressure;Samples;Min_cycle;Max_cycle;Signal;HPM_P1;HPM_P2
2022/06/13 00:00:16;;;;;;;60.13;4.50;;;;;;;;;;5094259;28;20453;-77
2022/06/13 00:02:43;;;;;;;60.67;4.63;;;;;;;;;;5093773;28;20472;-77
2022/06/13 00:05:11;;;;;;;61.20;4.60;;;;;;;;;;5092799;28;20933;-77
2022/06/13 00:07:39;;;;;;;61.70;4.70;;;;;;;;;;5073675;28;20973;-77
2022/06/13 00:10:07;;;;;;;60.60;4.30;;;;;;;;;;5073997;28;20827;-78
2022/06/13 00:12:34;;;;;;;59.87;4.07;;;;;;;;;;5073744;28;20478;-77
2022/06/13 00:15:01;;;;;;;60.30;4.43;;;;;;;;;;5073896;28;20453;-76
2022/06/13 00:17:29;;;;;;;60.07;4.13;;;;;;;;;;5073496;28;20455;-77
2022/06/13 00:19:56;;;;;;;60.57;4.07;;;;;;;;;;5073768;28;21006;-77
2022/06/13 00:22:23;;;;;;;62.30;4.13;;;;;;;;;;5074143;28;20496;-77
2022/06/13 00:24:52;;;;;;;61.00;4.70;;;;;;;;;;5073900;28;20963;-77
2022/06/13 00:27:19;;;;;;;64.50;4.13;;;;;;;;;;5073461;28;20450;-77
2022/06/13 00:29:49;;;;;;;62.80;4.00;;;;;;;;;;5085284;28;20454;-77
2022/06/13 00:32:16;;;;;;;61.03;4.80;;;;;;;;;;5094239;28;20564;-77
2022/06/13 00:34:43;;;;;;;60.40;4.00;;;;;;;;;;5094284;28;20887;-77
2022/06/13 00:37:11;;;;;;;61.10;4.70;;;;;;;;;;5093664;28;21203;-77
2022/06/13 00:39:38;;;;;;;61.70;4.60;;;;;;;;;;5093498;28;20495;-77
2022/06/13 00:42:07;;;;;;;60.27;4.40;;;;;;;;;;5093834;28;20476;-77
2022/06/13 00:44:35;;;;;;;60.07;4.23;;;;;;;;;;5094817;28;20540;-77
2022/06/13 00:47:03;;;;;;;61.77;4.70;;;;;;;;;;5094368;28;20454;-77
2022/06/13 00:49:32;;;;;;;59.80;4.20;;;;;;;;;;5094560;28;20473;-77
2022/06/13 00:52:08;;;;;;;61.07;5.03;;;;;;;;;;5094824;28;20548;-77
2022/06/13 00:54:36;;;;;;;61.43;5.10;;;;;;;;;;5094937;28;20448;-78
2022/06/13 00:57:04;;;;;;;60.07;4.20;;;;;;;;;;5094885;28;20483;-78
2022/06/13 00:59:36;;;;;;;59.37;3.97;;;;;;;;;;5094744;28;20583;-78
2022/06/13 01:02:03;;;;;;;59.90;4.33;;;;;;;;;;5092750;28;20691;-78
2022/06/13 01:04:31;;;;;;;60.40;4.10;;;;;;;;;;5100234;28;20505;-76
2022/06/13 01:06:58;;;;;;;61.07;3.87;;;;;;;;;;5101078;28;20536;-77
2022/06/13 01:12:07;;;;;;;61.50;5.20;;;;;;;;;;5074212;28;20984;-78
2022/06/13 01:14:55;;;;;;;59.87;4.57;;;;;;;;;;5074389;28;21046;-78
2022/06/13 01:17:36;;;;;;;60.67;4.80;;;;;;;;;;5068842;28;20907;-78
2022/06/13 01:20:18;;;;;;;60.70;4.33;;;;;;;;;;5074875;28;20864;-78
2022/06/13 01:22:58;;;;;;;61.37;4.10;;;;;;;;;;5074285;28;20470;-78
2022/06/13 01:25:37;;;;;;;60.33;4.57;;;;;;;;;;5074951;28;20545;-78
2022/06/13 01:28:17;;;;;;;61.40;4.90;;;;;;;;;;5074502;28;20754;-78
2022/06/13 01:30:53;;;;;;;60.50;4.47;;;;;;;;;;5073934;28;20541;-78
2022/06/13 01:33:24;;;;;;;59.37;4.07;;;;;;;;;;5073859;28;20479;-76
2022/06/13 01:35:55;;;;;;;61.37;4.80;;;;;;;;;;5093890;28;20477;-78
2022/06/13 01:38:29;;;;;;;60.87;5.07;;;;;;;;;;5093809;28;20612;-78
2022/06/13 01:41:02;;;;;;;61.60;4.37;;;;;;;;;;5094669;28;20449;-77
2022/06/13 01:43:35;;;;;;;62.23;4.80;;;;;;;;;;5094125;28;20557;-78
2022/06/13 01:46:08;;;;;;;60.40;4.60;;;;;;;;;;5094881;28;20878;-78
2022/06/13 01:48:37;;;;;;;59.70;3.77;;;;;;;;;;5093916;28;20437;-77
2022/06/13 01:51:10;;;;;;;62.47;4.83;;;;;;;;;;5093916;28;20952;-78
2022/06/13 01:53:44;;;;;;;63.73;4.50;;;;;;;;;;5094451;28;20497;-78
2022/06/13 01:56:12;;;;;;;61.17;5.10;;;;;;;;;;5094295;28;21198;-78
2022/06/13 01:58:44;;;;;;;60.57;4.57;;;;;;;;;;5093895;28;20862;-78
2022/06/13 02:01:17;;;;;;;60.97;4.63;;;;;;;;;;5094983;28;20456;-78
2022/06/13 02:03:46;;;;;;;61.30;5.60;;;;;;;;;;5094024;28;20445;-78
2022/06/13 02:06:15;;;;;;;62.67;5.33;;;;;;;;;;5092436;28;20460;-78
2022/06/13 02:08:45;;;;;;;61.90;4.43;;;;;;;;;;5093778;28;20488;-78
2022/06/13 02:11:14;;;;;;;62.20;4.90;;;;;;;;;;5094347;28;20527;-79
2022/06/13 02:13:45;;;;;;;61.17;4.70;;;;;;;;;;5094937;28;20473;-78
2022/06/13 02:16:15;;;;;;;63.73;5.80;;;;;;;;;;5095196;28;20454;-78
2022/06/13 02:18:44;;;;;;;60.07;4.50;;;;;;;;;;5094851;28;20568;-78
2022/06/13 02:21:14;;;;;;;63.53;4.80;;;;;;;;;;5095364;28;20463;-78
2022/06/13 02:23:43;;;;;;;63.40;4.70;;;;;;;;;;5094866;28;20898;-78
2022/06/13 02:26:12;;;;;;;60.37;4.87;;;;;;;;;;5094987;28;20785;-78
2022/06/13 02:28:47;;;;;;;61.10;4.43;;;;;;;;;;5094266;28;20442;-78
2022/06/13 02:31:17;;;;;;;61.27;4.20;;;;;;;;;;5095677;28;20877;-79
2022/06/13 02:33:47;;;;;;;61.80;5.20;;;;;;;;;;5095264;28;20460;-78
2022/06/13 02:36:16;;;;;;;60.60;5.20;;;;;;;;;;5104001;28;20461;-79
2022/06/13 02:38:44;;;;;;;59.63;4.33;;;;;;;;;;5093019;28;20504;-77
2022/06/13 02:41:13;;;;;;;60.60;4.80;;;;;;;;;;5097982;28;20535;-79
2022/06/13 02:43:43;;;;;;;60.50;4.40;;;;;;;;;;5100030;28;20479;-78
2022/06/13 02:46:13;;;;;;;60.70;4.73;;;;;;;;;;5099162;28;20438;-79
2022/06/13 02:48:44;;;;;;;59.77;4.30;;;;;;;;;;5099250;28;20544;-79
2022/06/13 02:51:16;;;;;;;60.57;4.73;;;;;;;;;;5098745;28;20540;-78
2022/06/13 02:53:48;;;;;;;61.20;4.80;;;;;;;;;;5100062;28;20479;-79
2022/06/13 02:56:20;;;;;;;59.90;4.40;;;;;;;;;;5099216;28;20489;-78
2022/06/13 02:58:52;;;;;;;60.10;4.50;;;;;;;;;;5099041;28;20488;-78
2022/06/13 03:01:20;;;;;;;62.47;4.97;;;;;;;;;;5098755;28;20535;-79
2022/06/13 03:03:55;;;;;;;61.47;4.90;;;;;;;;;;5098880;28;20537;-78
2022/06/13 03:06:25;;;;;;;63.73;4.73;;;;;;;;;;5099309;28;20490;-79
2022/06/13 03:08:58;;;;;;;60.97;4.67;;;;;;;;;;5098671;28;20500;-79
2022/06/13 03:11:43;;;;;;;60.07;4.80;;;;;;;;;;5096433;28;20551;-79
2022/06/13 03:14:30;;;;;;;60.10;4.70;;;;;;;;;;5088954;28;20540;-79
2022/06/13 03:17:02;;;;;;;60.00;4.57;;;;;;;;;;5093932;28;20536;-79
2022/06/13 03:19:35;;;;;;;60.77;4.77;;;;;;;;;;5098499;28;21033;-78
2022/06/13 03:22:05;;;;;;;62.00;5.57;;;;;;;;;;5098953;28;20591;-78
2022/06/13 03:24:37;;;;;;;61.77;5.20;;;;;;;;;;5098441;28;20437;-79
2022/06/13 03:27:07;;;;;;;59.20;3.60;;;;;;;;;;5099552;28;20460;-79
2022/06/13 03:29:37;;;;;;;60.17;4.70;;;;;;;;;;5098999;28;20441;-79
2022/06/13 03:32:07;;;;;;;60.80;4.27;;;;;;;;;;5099704;28;20454;-79
2022/06/13 03:34:39;;;;;;;60.00;4.00;;;;;;;;;;5099443;28;20445;-79
2022/06/13 03:37:07;;;;;;;60.37;4.73;;;;;;;;;;5098810;28;20451;-79
2022/06/13 03:39:38;;;;;;;61.13;5.60;;;;;;;;;;5098594;28;20495;-79
2022/06/13 03:42:08;;;;;;;61.90;4.60;;;;;;;;;;5099052;28;20511;-79
2022/06/13 03:44:38;;;;;;;60.93;4.47;;;;;;;;;;5097212;28;20447;-79
2022/06/13 03:47:07;;;;;;;59.53;3.93;;;;;;;;;;5098281;28;20487;-79
2022/06/13 03:49:39;;;;;;;71.47;5.37;;;;;;;;;;5099131;28;20536;-79
2022/06/13 03:52:09;;;;;;;60.90;4.77;;;;;;;;;;5098119;28;20581;-79
2022/06/13 03:54:38;;;;;;;60.03;4.40;;;;;;;;;;5099421;28;20483;-79
2022/06/13 03:57:09;;;;;;;60.90;4.43;;;;;;;;;;5098526;28;20816;-79
2022/06/13 03:59:40;;;;;;;61.90;4.50;;;;;;;;;;5098966;28;20486;-79
2022/06/13 04:02:10;;;;;;;60.67;4.67;;;;;;;;;;5098492;28;20564;-79
2022/06/13 04:04:40;;;;;;;62.60;4.80;;;;;;;;;;5105489;28;20527;-79
2022/06/13 04:07:07;;;;;;;62.00;5.30;;;;;;;;;;5098480;28;20540;-79
2022/06/13 04:09:36;;;;;;;61.57;4.83;;;;;;;;;;5098994;28;20882;-79
2022/06/13 04:12:14;;;;;;;63.90;5.20;;;;;;;;;;5098387;28;20540;-79
2022/06/13 04:14:47;;;;;;;62.00;5.20;;;;;;;;;;5099013;28;20543;-79
2022/06/13 04:17:18;;;;;;;60.03;4.57;;;;;;;;;;5097492;28;20445;-80
2022/06/13 04:19:52;;;;;;;62.00;4.37;;;;;;;;;;5098040;28;20479;-80
2022/06/13 04:22:20;;;;;;;60.47;4.43;;;;;;;;;;5098031;28;20562;-80
2022/06/13 04:24:55;;;;;;;61.80;5.47;;;;;;;;;;5098383;28;20539;-81
2022/06/13 04:27:24;;;;;;;62.63;4.87;;;;;;;;;;5098693;28;20451;-80
2022/06/13 04:29:54;;;;;;;65.87;5.37;;;;;;;;;;5098705;28;20531;-80
2022/06/13 04:32:23;;;;;;;62.80;4.43;;;;;;;;;;5099081;28;20531;-80
2022/06/13 04:34:52;;;;;;;60.73;4.90;;;;;;;;;;5099190;28;20449;-80
2022/06/13 04:37:21;;;;;;;62.00;4.50;;;;;;;;;;5098993;28;20939;-80
2022/06/13 04:39:50;;;;;;;61.23;4.87;;;;;;;;;;5099706;28;20551;-80
2022/06/13 04:42:21;;;;;;;62.90;5.07;;;;;;;;;;5099122;28;20563;-80
2022/06/13 04:44:49;;;;;;;62.83;5.13;;;;;;;;;;5099917;28;20432;-80
2022/06/13 04:47:17;;;;;;;60.70;5.23;;;;;;;;;;5096078;28;20451;-80
2022/06/13 04:49:47;;;;;;;65.27;6.47;;;;;;;;;;5099008;28;20531;-80
2022/06/13 04:52:17;;;;;;;66.93;5.83;;;;;;;;;;5097781;28;20893;-80
2022/06/13 04:54:46;;;;;;;62.40;4.70;;;;;;;;;;5098837;28;20797;-80
2022/06/13 04:57:14;;;;;;;67.80;5.80;;;;;;;;;;5098207;28;20536;-80
2022/06/13 04:59:43;;;;;;;59.73;4.57;;;;;;;;;;5097857;28;20548;-80
2022/06/13 05:02:15;;;;;;;59.70;3.87;;;;;;;;;;5097512;28;20470;-81
2022/06/13 05:04:42;;;;;;;62.70;5.63;;;;;;;;;;5097841;28;20500;-80
2022/06/13 05:07:12;;;;;;;63.23;4.90;;;;;;;;;;5097358;28;20817;-80
2022/06/13 05:09:43;;;;;;;61.87;4.90;;;;;;;;;;5097043;28;20531;-79
2022/06/13 05:12:13;;;;;;;76.93;5.53;;;;;;;;;;5096447;28;20556;-79
2022/06/13 05:14:42;;;;;;;60.47;4.00;;;;;;;;;;5095640;28;20443;-80
2022/06/13 05:17:22;;;;;;;61.93;5.03;;;;;;;;;;5095584;28;20905;-80
2022/06/13 05:19:55;;;;;;;65.20;5.13;;;;;;;;;;5095930;28;20474;-79
2022/06/13 05:22:30;;;;;;;61.50;5.50;;;;;;;;;;5093240;28;20559;-79
2022/06/13 05:25:20;;;;;;;62.37;4.77;;;;;;;;;;5095002;28;20488;-79
2022/06/13 05:27:47;;;;;;;61.87;5.30;;;;;;;;;;5094694;28;20449;-79
2022/06/13 05:30:15;;;;;;;60.73;4.43;;;;;;;;;;5093631;28;20451;-76
2022/06/13 05:32:43;;;;;;;59.80;4.53;;;;;;;;;;5092137;28;20474;-76
2022/06/13 05:35:13;;;;;;;66.50;5.77;;;;;;;;;;5092097;28;20447;-76
2022/06/13 05:37:40;;;;;;;68.90;5.00;;;;;;;;;;5091545;28;20459;-76
2022/06/13 05:40:08;;;;;;;61.27;4.67;;;;;;;;;;5092145;28;20485;-76
2022/06/13 05:42:36;;;;;;;63.20;4.70;;;;;;;;;;5091846;28;20480;-75
2022/06/13 05:45:03;;;;;;;63.77;4.90;;;;;;;;;;5092182;28;20444;-74
2022/06/13 05:47:31;;;;;;;59.80;4.30;;;;;;;;;;5091487;28;20455;-75
2022/06/13 05:49:58;;;;;;;60.90;4.40;;;;;;;;;;5091813;28;20449;-75
2022/06/13 05:52:25;;;;;;;59.27;3.67;;;;;;;;;;5091544;28;20993;-76
2022/06/13 05:54:52;;;;;;;61.97;4.70;;;;;;;;;;5089380;28;20462;-76
2022/06/13 05:57:19;;;;;;;68.77;4.30;;;;;;;;;;5091586;28;20461;-75
2022/06/13 05:59:47;;;;;;;59.60;3.80;;;;;;;;;;5091856;28;21051;-76
2022/06/13 06:02:15;;;;;;;63.00;5.07;;;;;;;;;;5091320;28;21061;-76
2022/06/13 06:04:42;;;;;;;61.87;4.60;;;;;;;;;;5091500;28;20459;-75
2022/06/13 06:07:09;;;;;;;62.50;3.90;;;;;;;;;;5091521;28;20444;-76
2022/06/13 06:09:36;;;;;;;62.33;4.10;;;;;;;;;;5091800;28;20816;-76
2022/06/13 06:12:04;;;;;;;61.27;5.00;;;;;;;;;;5091585;28;20483;-76
2022/06/13 06:14:31;;;;;;;61.97;4.10;;;;;;;;;;5091291;28;20453;-76
2022/06/13 06:16:59;;;;;;;60.10;4.20;;;;;;;;;;5094944;28;20444;-76
2022/06/13 06:19:26;;;;;;;62.13;4.37;;;;;;;;;;5095200;28;20470;-77
2022/06/13 06:21:53;;;;;;;63.93;5.23;;;;;;;;;;5095812;28;20976;-76
2022/06/13 06:24:21;;;;;;;60.30;3.93;;;;;;;;;;5095829;28;20842;-76
2022/06/13 06:26:48;;;;;;;60.37;3.60;;;;;;;;;;5092933;28;20455;-77
2022/06/13 06:29:15;;;;;;;61.50;4.50;;;;;;;;;;5094211;28;20455;-77
2022/06/13 06:31:42;;;;;;;59.80;3.73;;;;;;;;;;5095302;28;20547;-76
2022/06/13 06:34:11;;;;;;;59.70;4.07;;;;;;;;;;5094927;28;20448;-76
2022/06/13 06:36:38;;;;;;;60.60;4.47;;;;;;;;;;5095748;28;20806;-77
2022/06/13 06:39:05;;;;;;;60.17;4.13;;;;;;;;;;5095016;28;20909;-77
2022/06/13 06:41:33;;;;;;;59.37;3.50;;;;;;;;;;5095561;28;20520;-78
2022/06/13 06:44:00;;;;;;;62.47;4.70;;;;;;;;;;5095264;28;20824;-78
2022/06/13 06:46:27;;;;;;;59.90;3.67;;;;;;;;;;5095190;28;20448;-77
2022/06/13 06:48:55;;;;;;;62.27;5.43;;;;;;;;;;5095075;28;20958;-78
2022/06/13 06:51:25;;;;;;;59.70;3.97;;;;;;;;;;5095334;28;20560;-78
2022/06/13 07:02:06;;;;;;;68.53;4.63;;;;;;;;;;5098013;28;20481;-79
2022/06/13 07:04:33;;;;;;;60.90;4.33;;;;;;;;;;5098091;28;20536;-79
2022/06/13 07:07:02;;;;;;;60.90;5.00;;;;;;;;;;5097775;28;20442;-79
2022/06/13 07:09:29;;;;;;;63.30;4.53;;;;;;;;;;5098307;28;20523;-79
2022/06/13 07:11:56;;;;;;;59.73;3.50;;;;;;;;;;5099332;28;20464;-79
2022/06/13 07:14:24;;;;;;;61.50;4.07;;;;;;;;;;5098606;28;20795;-81
2022/06/13 07:16:51;;;;;;;60.73;3.70;;;;;;;;;;5098364;28;20456;-81
2022/06/13 07:19:18;;;;;;;59.60;3.67;;;;;;;;;;5095943;28;20542;-77
2022/06/13 07:21:45;;;;;;;59.50;3.53;;;;;;;;;;5095133;28;20520;-78
2022/06/13 07:24:14;;;;;;;60.50;3.97;;;;;;;;;;5097549;28;20454;-78
2022/06/13 07:26:42;;;;;;;60.37;3.77;;;;;;;;;;5099346;28;20517;-78
2022/06/13 07:29:09;;;;;;;60.00;3.20;;;;;;;;;;5100590;28;20525;-79
2022/06/13 07:31:39;;;;;;;60.40;3.93;;;;;;;;;;5102249;28;20504;-79
2022/06/13 07:34:07;;;;;;;60.47;3.73;;;;;;;;;;5102767;28;20449;-78
2022/06/13 07:36:34;;;;;;;59.07;3.53;;;;;;;;;;5099932;28;21004;-78
2022/06/13 07:39:01;;;;;;;61.00;3.73;;;;;;;;;;5098663;28;20469;-73
2022/06/13 07:41:30;;;;;;;60.23;3.97;;;;;;;;;;5102211;28;20492;-77
2022/06/13 07:43:57;;;;;;;59.30;3.30;;;;;;;;;;5102791;28;20963;-79
2022/06/13 07:46:26;;;;;;;59.67;3.37;;;;;;;;;;5098216;28;20507;-79
2022/06/13 07:48:54;;;;;;;59.87;3.40;;;;;;;;;;5099027;28;20458;-78
2022/06/13 07:51:21;;;;;;;61.20;3.60;;;;;;;;;;5099206;28;20510;-79
2022/06/13 07:53:49;;;;;;;61.97;3.33;;;;;;;;;;5098507;28;20454;-77
2022/06/13 07:56:17;;;;;;;60.37;3.50;;;;;;;;;;5091865;28;20946;-78
2022/06/13 07:58:47;;;;;;;59.07;3.10;;;;;;;;;;5094107;28;20454;-78
2022/06/13 08:01:14;;;;;;;60.27;3.60;;;;;;;;;;5093821;28;20489;-78
2022/06/13 08:03:42;;;;;;;59.67;3.63;;;;;;;;;;5093466;28;20470;-77
2022/06/13 08:06:10;;;;;;;60.47;3.70;;;;;;;;;;5094115;28;20452;-78
2022/06/13 08:08:39;;;;;;;59.60;3.70;;;;;;;;;;5093438;28;20454;-77
2022/06/13 08:11:07;;;;;;;59.80;3.43;;;;;;;;;;5093778;28;20445;-78
2022/06/13 08:13:35;;;;;;;60.10;3.50;;;;;;;;;;5093557;28;20849;-78
2022/06/13 08:16:03;;;;;;;60.50;3.43;;;;;;;;;;5093305;28;20442;-78
2022/06/13 08:18:31;;;;;;;63.33;3.80;;;;;;;;;;5093898;28;20461;-78
2022/06/13 08:20:58;;;;;;;59.17;3.30;;;;;;;;;;5093449;28;20561;-78
2022/06/13 08:23:25;;;;;;;59.30;3.53;;;;;;;;;;5093421;28;20516;-78
2022/06/13 08:25:53;;;;;;;59.80;3.27;;;;;;;;;;5091716;28;20541;-78
2022/06/13 08:28:20;;;;;;;60.30;3.90;;;;;;;;;;5093621;28;20541;-78
2022/06/13 08:30:49;;;;;;;59.97;3.30;;;;;;;;;;5093564;28;20545;-78
2022/06/13 08:33:18;;;;;;;61.47;3.20;;;;;;;;;;5093830;28;21062;-77
2022/06/13 08:35:45;;;;;;;60.53;3.83;;;;;;;;;;5094328;28;20446;-77
2022/06/13 08:38:12;;;;;;;60.17;3.40;;;;;;;;;;5092676;28;20546;-77
2022/06/13 08:40:43;;;;;;;60.70;3.33;;;;;;;;;;5093261;28;20573;-77
2022/06/13 08:43:19;;;;;;;63.90;3.73;;;;;;;;;;5092897;28;20467;-76
2022/06/13 08:45:48;;;;;;;62.37;4.37;;;;;;;;;;5093272;28;20835;-75
2022/06/13 08:48:21;;;;;;;65.87;5.03;;;;;;;;;;5092580;28;20474;-74
2022/06/13 08:50:51;;;;;;;58.77;3.40;;;;;;;;;;5086329;28;20515;-77
2022/06/13 08:53:21;;;;;;;60.87;4.00;;;;;;;;;;5093660;28;20995;-78
2022/06/13 08:55:50;;;;;;;59.37;3.70;;;;;;;;;;5084376;28;20886;-77
2022/06/13 08:58:21;;;;;;;60.43;3.10;;;;;;;;;;5093156;28;21008;-77
2022/06/13 09:00:51;;;;;;;60.30;3.70;;;;;;;;;;5090875;28;20494;-77
2022/06/13 09:03:22;;;;;;;60.00;3.57;;;;;;;;;;5088927;28;20458;-81
2022/06/13 09:05:52;;;;;;;58.90;3.80;;;;;;;;;;5095167;28;20843;-81
2022/06/13 09:08:23;;;;;;;59.93;3.40;;;;;;;;;;5095636;28;20536;-81
2022/06/13 09:10:53;;;;;;;58.70;2.90;;;;;;;;;;5096019;28;20447;-81
2022/06/13 09:13:23;;;;;;;59.07;3.30;;;;;;;;;;5096683;28;20500;-81
2022/06/13 09:15:52;;;;;;;59.30;3.30;;;;;;;;;;5097014;28;20515;-81
2022/06/13 09:18:23;;;;;;;59.37;3.10;;;;;;;;;;5096610;28;20508;-80
2022/06/13 09:20:54;;;;;;;64.70;3.70;;;;;;;;;;5094806;28;20481;-81
2022/06/13 09:23:25;;;;;;;58.57;3.10;;;;;;;;;;5095839;28;20902;-80
2022/06/13 09:25:53;;;;;;;58.73;3.53;;;;;;;;;;5095998;28;20544;-81
2022/06/13 09:28:23;;;;;;;60.47;3.20;;;;;;;;;;5095244;28;20521;-80
2022/06/13 09:30:51;;;;;;;63.43;3.70;;;;;;;;;;5096068;28;20810;-81
2022/06/13 09:33:23;;;;;;;59.00;3.53;;;;;;;;;;5094315;28;20553;-80
2022/06/13 09:35:54;;;;;;;60.33;3.50;;;;;;;;;;5093255;28;20496;-80
2022/06/13 09:38:23;;;;;;;61.10;4.00;;;;;;;;;;5096715;28;20464;-81
2022/06/13 09:40:56;;;;;;;59.87;3.07;;;;;;;;;;5100941;28;21108;-81
2022/06/13 09:43:30;;;;;;;59.43;3.10;;;;;;;;;;5099803;28;20476;-82
2022/06/13 09:46:03;;;;;;;59.83;3.23;;;;;;;;;;5099603;28;20455;-81
2022/06/13 09:48:37;;;;;;;59.57;3.37;;;;;;;;;;5095241;28;20437;-80
2022/06/13 09:51:09;;;;;;;59.57;3.10;;;;;;;;;;5095921;28;20538;-79
2022/06/13 09:53:39;;;;;;;59.87;3.13;;;;;;;;;;5099678;28;20476;-79
2022/06/13 09:56:09;;;;;;;60.50;3.60;;;;;;;;;;5105795;28;20473;-79
2022/06/13 09:58:41;;;;;;;60.20;3.23;;;;;;;;;;5100935;28;20520;-80
2022/06/13 10:01:10;;;;;;;60.40;3.20;;;;;;;;;;5097258;28;20485;-83
2022/06/13 10:03:47;;;;;;;58.80;2.90;;;;;;;;;;5097116;28;20515;-80
2022/06/13 10:06:19;;;;;;;59.37;3.10;;;;;;;;;;5095418;28;20477;-79
2022/06/13 10:09:00;;;;;;;59.73;3.30;;;;;;;;;;5096421;28;20489;-80
2022/06/13 10:11:33;;;;;;;59.47;3.40;;;;;;;;;;5098394;28;20439;-80
2022/06/13 10:14:06;;;;;;;58.80;2.93;;;;;;;;;;5097791;28;20445;-81
2022/06/13 10:16:37;;;;;;;59.10;3.17;;;;;;;;;;5097246;28;20478;-80
2022/06/13 10:19:10;;;;;;;59.17;3.20;;;;;;;;;;5096973;28;20511;-81
2022/06/13 10:21:42;;;;;;;59.83;2.93;;;;;;;;;;5098097;28;20510;-81
2022/06/13 10:24:17;;;;;;;62.90;2.67;;;;;;;;;;5097228;28;20501;-81
2022/06/13 10:26:47;;;;;;;58.90;2.87;;;;;;;;;;5099115;28;20479;-80
2022/06/13 10:29:20;;;;;;;58.80;2.40;;;;;;;;;;5099583;28;20448;-81
2022/06/13 10:31:55;;;;;;;60.33;3.03;;;;;;;;;;5099915;28;20565;-80
2022/06/13 10:34:27;;;;;;;59.07;2.83;;;;;;;;;;5097110;28;20549;-80
2022/06/13 10:36:58;;;;;;;58.03;2.60;;;;;;;;;;5097390;28;20482;-81
2022/06/13 10:39:27;;;;;;;60.30;3.03;;;;;;;;;;5098257;28;20541;-81
2022/06/13 10:41:56;;;;;;;59.50;2.60;;;;;;;;;;5100069;28;20574;-81
2022/06/13 10:44:23;;;;;;;58.90;2.40;;;;;;;;;;5099528;28;20468;-81
2022/06/13 10:46:51;;;;;;;58.50;2.67;;;;;;;;;;5099172;28;20529;-81
2022/06/13 10:49:23;;;;;;;57.93;2.40;;;;;;;;;;5099022;28;20486;-80
2022/06/13 10:51:52;;;;;;;58.17;2.60;;;;;;;;;;5099630;28;20470;-81
2022/06/13 10:54:21;;;;;;;58.17;2.43;;;;;;;;;;5097774;28;20941;-79
2022/06/13 10:56:51;;;;;;;59.47;2.50;;;;;;;;;;5100340;28;20453;-81
2022/06/13 10:59:23;;;;;;;60.07;2.67;;;;;;;;;;5100147;28;20446;-80
2022/06/13 11:01:54;;;;;;;60.97;2.47;;;;;;;;;;5102462;28;20566;-81
2022/06/13 11:04:21;;;;;;;61.07;2.57;;;;;;;;;;5102432;28;20441;-80
2022/06/13 11:06:50;;;;;;;59.87;2.70;;;;;;;;;;5099659;28;20458;-80
2022/06/13 11:09:23;;;;;;;58.30;2.47;;;;;;;;;;5098689;28;20482;-81
2022/06/13 11:11:54;;;;;;;60.00;3.00;;;;;;;;;;5081498;28;20499;-81
2022/06/13 11:14:26;;;;;;;58.63;2.70;;;;;;;;;;5082104;28;20527;-81
2022/06/13 11:22:40;;;;;;;58.77;2.60;;;;;;;;;;5085571;28;20509;-81
2022/06/13 11:25:23;;;;;;;57.67;2.17;;;;;;;;;;5082129;28;20447;-80
2022/06/13 11:28:01;;;;;;;58.57;2.53;;;;;;;;;;5080557;28;20490;-81
2022/06/13 11:30:46;;;;;;;58.40;2.80;;;;;;;;;;5081826;28;20842;-81
2022/06/13 11:33:36;;;;;;;62.90;2.43;;;;;;;;;;5082239;28;20467;-82
2022/06/13 11:36:19;;;;;;;58.10;2.37;;;;;;;;;;5078335;28;20459;-80
2022/06/13 11:38:52;;;;;;;58.93;2.60;;;;;;;;;;5079173;28;20463;-81
2022/06/13 11:41:21;;;;;;;57.60;2.20;;;;;;;;;;5081378;28;20482;-82
2022/06/13 11:43:51;;;;;;;58.67;2.30;;;;;;;;;;5099038;28;20907;-81
2022/06/13 11:46:33;;;;;;;57.70;2.33;;;;;;;;;;5098763;28;20950;-80
2022/06/13 11:49:02;;;;;;;59.37;2.63;;;;;;;;;;5099064;28;20886;-81
2022/06/13 11:51:31;;;;;;;58.17;2.50;;;;;;;;;;5100769;28;20526;-82
2022/06/13 11:54:00;;;;;;;60.20;2.60;;;;;;;;;;5100787;28;20792;-81
2022/06/13 11:56:30;;;;;;;62.03;2.87;;;;;;;;;;5098237;28;20885;-81
2022/06/13 11:58:59;;;;;;;57.97;2.40;;;;;;;;;;5095913;28;20447;-80
2022/06/13 12:01:28;;;;;;;58.77;2.60;;;;;;;;;;5097552;28;20814;-80
2022/06/13 12:04:00;;;;;;;60.00;3.10;;;;;;;;;;5098284;28;20446;-83
2022/06/13 12:06:27;;;;;;;57.77;2.20;;;;;;;;;;5098450;28;20452;-80
2022/06/13 12:09:03;;;;;;;58.67;3.07;;;;;;;;;;5098215;28;20532;-79
2022/06/13 12:11:31;;;;;;;58.70;2.30;;;;;;;;;;5097292;28;20439;-80
2022/06/13 12:14:01;;;;;;;58.40;2.30;;;;;;;;;;5096385;28;20454;-81
2022/06/13 12:16:35;;;;;;;59.60;3.17;;;;;;;;;;5100011;28;20526;-81
2022/06/13 12:19:17;;;;;;;60.00;2.60;;;;;;;;;;5099408;28;20460;-81
2022/06/13 12:21:48;;;;;;;58.10;2.27;;;;;;;;;;5099036;28;20520;-81
2022/06/13 12:24:19;;;;;;;58.00;2.30;;;;;;;;;;5099098;28;20471;-82
2022/06/13 12:26:50;;;;;;;58.40;2.40;;;;;;;;;;5100131;28;20540;-82
2022/06/13 12:29:26;;;;;;;58.20;2.33;;;;;;;;;;5100948;28;20490;-81
2022/06/13 12:31:56;;;;;;;58.80;2.90;;;;;;;;;;5100631;28;20552;-82
2022/06/13 12:34:27;;;;;;;57.43;2.13;;;;;;;;;;5100928;28;20550;-83
2022/06/13 12:37:12;;;;;;;57.77;2.60;;;;;;;;;;5095945;28;21046;-79
2022/06/13 12:39:47;;;;;;;58.20;2.07;;;;;;;;;;5097001;28;20477;-80
2022/06/13 12:42:23;;;;;;;58.80;2.20;;;;;;;;;;5099918;28;20524;-81
2022/06/13 12:45:03;;;;;;;57.60;2.33;;;;;;;;;;5098874;28;20442;-83
2022/06/13 12:47:39;;;;;;;58.17;2.57;;;;;;;;;;5098830;28;20478;-80
2022/06/13 12:50:21;;;;;;;59.57;2.50;;;;;;;;;;5097574;28;20431;-80
2022/06/13 12:52:57;;;;;;;58.97;2.50;;;;;;;;;;5099563;28;20494;-81
2022/06/13 12:55:33;;;;;;;58.40;2.50;;;;;;;;;;5099970;28;20469;-81
2022/06/13 12:58:09;;;;;;;58.20;2.60;;;;;;;;;;5098772;28;20572;-81
2022/06/13 13:00:39;;;;;;;58.70;2.60;;;;;;;;;;5107640;28;20474;-81
2022/06/13 13:03:21;;;;;;;58.10;2.30;;;;;;;;;;5099936;28;20982;-80
2022/06/13 13:05:54;;;;;;;58.37;2.83;;;;;;;;;;5101270;28;20934;-81
2022/06/13 13:08:26;;;;;;;57.77;2.00;;;;;;;;;;5100535;28;20454;-82
2022/06/13 13:11:01;;;;;;;58.80;2.33;;;;;;;;;;5098249;28;20451;-81
2022/06/13 13:13:39;;;;;;;57.90;2.00;;;;;;;;;;5097866;28;20571;-82
2022/06/13 13:16:08;;;;;;;58.20;2.33;;;;;;;;;;5097944;28;20514;-81
2022/06/13 13:18:46;;;;;;;59.00;2.57;;;;;;;;;;5098290;28;20457;-82
2022/06/13 13:21:18;;;;;;;60.87;2.53;;;;;;;;;;5098295;28;20430;-82
2022/06/13 13:23:48;;;;;;;58.20;2.40;;;;;;;;;;5097377;28;20486;-82
2022/06/13 13:26:27;;;;;;;59.37;2.50;;;;;;;;;;5097612;28;20454;-81
2022/06/13 13:29:02;;;;;;;60.27;3.37;;;;;;;;;;5096666;28;20441;-82
2022/06/13 13:31:33;;;;;;;57.83;2.20;;;;;;;;;;5097638;28;20532;-82
2022/06/13 13:34:07;;;;;;;58.10;2.53;;;;;;;;;;5097619;28;20454;-82
2022/06/13 13:36:38;;;;;;;57.70;2.20;;;;;;;;;;5097994;28;20445;-82
2022/06/13 13:39:11;;;;;;;57.90;2.57;;;;;;;;;;5098031;28;20458;-81
2022/06/13 13:41:41;;;;;;;57.97;2.30;;;;;;;;;;5098360;28;20454;-82
2022/06/13 13:44:13;;;;;;;58.40;2.30;;;;;;;;;;5097184;28;20453;-81
2022/06/13 13:46:42;;;;;;;57.87;2.40;;;;;;;;;;5097124;28;20542;-81
2022/06/13 13:49:12;;;;;;;57.87;2.30;;;;;;;;;;5096907;28;20452;-82
2022/06/13 13:51:41;;;;;;;58.17;2.23;;;;;;;;;;5096173;28;20489;-81
2022/06/13 13:54:13;;;;;;;60.57;2.40;;;;;;;;;;5096317;28;20873;-82
2022/06/13 13:56:42;;;;;;;58.40;2.40;;;;;;;;;;5096239;28;20522;-82
2022/06/13 13:59:12;;;;;;;57.90;2.47;;;;;;;;;;5100093;28;20880;-81
2022/06/13 14:01:44;;;;;;;58.37;2.50;;;;;;;;;;5098109;28;20549;-81
2022/06/13 14:04:24;;;;;;;58.20;2.80;;;;;;;;;;5096724;28;21095;-81
2022/06/13 14:06:53;;;;;;;58.47;2.20;;;;;;;;;;5097654;28;20867;-81
2022/06/13 14:09:21;;;;;;;57.90;2.27;;;;;;;;;;5097366;28;20498;-81
2022/06/13 14:12:02;;;;;;;58.47;2.50;;;;;;;;;;5097771;28;20458;-81
2022/06/13 14:14:39;;;;;;;58.17;2.43;;;;;;;;;;5097703;28;20813;-81
2022/06/13 14:17:07;;;;;;;58.10;2.60;;;;;;;;;;5098000;28;20449;-81
2022/06/13 14:19:35;;;;;;;57.37;2.30;;;;;;;;;;5097411;28;20446;-80
2022/06/13 14:22:17;;;;;;;58.80;2.70;;;;;;;;;;5096940;28;20531;-80
2022/06/13 14:24:49;;;;;;;58.07;2.17;;;;;;;;;;5096655;28;20537;-80
2022/06/13 14:27:17;;;;;;;57.97;2.20;;;;;;;;;;5097613;28;20522;-81
2022/06/13 14:29:46;;;;;;;57.20;2.03;;;;;;;;;;5096655;28;20450;-81
2022/06/13 14:32:15;;;;;;;57.67;2.50;;;;;;;;;;5097204;28;20530;-81
2022/06/13 14:37:30;;;;;;;57.60;2.30;;;;;;;;;;5098782;28;20479;-81
2022/06/13 14:39:59;;;;;;;58.50;2.33;;;;;;;;;;5100318;28;20533;-80
2022/06/13 14:42:47;;;;;;;57.50;2.33;;;;;;;;;;5100503;28;20573;-81
2022/06/13 14:45:19;;;;;;;58.83;3.00;;;;;;;;;;5102118;28;20802;-81
2022/06/13 14:47:56;;;;;;;57.20;2.00;;;;;;;;;;5101695;28;20450;-81
2022/06/13 14:50:40;;;;;;;60.60;2.47;;;;;;;;;;5100571;28;21005;-81
2022/06/13 14:53:25;;;;;;;57.67;2.30;;;;;;;;;;5104431;28;20474;-81
2022/06/13 14:56:07;;;;;;;59.30;2.67;;;;;;;;;;5089444;28;20529;-82
2022/06/13 14:58:52;;;;;;;59.00;2.30;;;;;;;;;;5099907;28;20450;-82
2022/06/13 15:01:22;;;;;;;58.20;2.50;;;;;;;;;;5100516;28;20515;-81
2022/06/13 15:04:04;;;;;;;58.50;2.50;;;;;;;;;;5099400;28;20574;-80
2022/06/13 15:06:32;;;;;;;58.47;2.20;;;;;;;;;;5098979;28;20507;-81
2022/06/13 15:09:05;;;;;;;58.20;2.50;;;;;;;;;;5099371;28;20533;-82
2022/06/13 15:11:34;;;;;;;58.37;2.37;;;;;;;;;;5099349;28;20449;-82